sensor_id;sensor_type;location;lat;lon;timestamp;temperature;humidity
61398;DHT22;47267;48.130;-2.040;2023-02-15T00:01:44;19.40;40.60
61398;DHT22;47267;48.130;-2.040;2023-02-15T00:04:13;19.40;40.60
61398;DHT22;47267;48.130;-2.040;2023-02-15T00:06:39;19.40;40.50
61398;DHT22;47267;48.130;-2.040;2023-02-15T00:09:05;19.40;40.60
61398;DHT22;47267;48.130;-2.040;2023-02-15T00:11:31;19.40;40.60
61398;DHT22;47267;48.130;-2.040;2023-02-15T00:16:34;19.30;40.50
61398;DHT22;47267;48.130;-2.040;2023-02-15T00:19:00;19.30;40.50
61398;DHT22;47267;48.130;-2.040;2023-02-15T00:21:30;19.30;40.50
61398;DHT22;47267;48.130;-2.040;2023-02-15T00:23:56;19.30;40.50
61398;DHT22;47267;48.130;-2.040;2023-02-15T00:26:22;19.30;40.50
61398;DHT22;47267;48.130;-2.040;2023-02-15T00:28:48;19.20;40.40
61398;DHT22;47267;48.130;-2.040;2023-02-15T00:31:14;19.20;40.40
61398;DHT22;47267;48.130;-2.040;2023-02-15T00:33:39;19.20;40.50
61398;DHT22;47267;48.130;-2.040;2023-02-15T00:36:07;19.20;40.50
61398;DHT22;47267;48.130;-2.040;2023-02-15T00:38:34;19.20;40.40
61398;DHT22;47267;48.130;-2.040;2023-02-15T00:41:02;19.20;40.50
61398;DHT22;47267;48.130;-2.040;2023-02-15T00:43:29;19.20;40.50
61398;DHT22;47267;48.130;-2.040;2023-02-15T00:45:55;19.10;40.40
61398;DHT22;47267;48.130;-2.040;2023-02-15T00:48:21;19.10;40.40
61398;DHT22;47267;48.130;-2.040;2023-02-15T00:50:52;19.10;40.40
61398;DHT22;47267;48.130;-2.040;2023-02-15T00:53:18;19.10;40.40
61398;DHT22;47267;48.130;-2.040;2023-02-15T00:55:44;19.10;40.40
61398;DHT22;47267;48.130;-2.040;2023-02-15T00:58:11;19.10;40.30
61398;DHT22;47267;48.130;-2.040;2023-02-15T01:00:37;19.10;40.40
61398;DHT22;47267;48.130;-2.040;2023-02-15T01:03:04;19.00;40.30
61398;DHT22;47267;48.130;-2.040;2023-02-15T01:05:30;19.00;40.30
61398;DHT22;47267;48.130;-2.040;2023-02-15T01:07:56;19.00;40.40
61398;DHT22;47267;48.130;-2.040;2023-02-15T01:10:22;19.00;40.30
61398;DHT22;47267;48.130;-2.040;2023-02-15T01:12:50;19.00;40.30
61398;DHT22;47267;48.130;-2.040;2023-02-15T01:15:15;19.00;40.30
61398;DHT22;47267;48.130;-2.040;2023-02-15T01:17:41;19.00;40.50
61398;DHT22;47267;48.130;-2.040;2023-02-15T01:20:08;19.00;40.30
61398;DHT22;47267;48.130;-2.040;2023-02-15T01:22:33;19.00;40.30
61398;DHT22;47267;48.130;-2.040;2023-02-15T01:24:59;19.00;40.30
61398;DHT22;47267;48.130;-2.040;2023-02-15T01:27:25;18.90;40.30
61398;DHT22;47267;48.130;-2.040;2023-02-15T01:29:50;18.90;40.30
61398;DHT22;47267;48.130;-2.040;2023-02-15T01:32:16;18.90;40.30
61398;DHT22;47267;48.130;-2.040;2023-02-15T01:34:42;18.90;40.30
61398;DHT22;47267;48.130;-2.040;2023-02-15T01:37:07;18.90;40.20
61398;DHT22;47267;48.130;-2.040;2023-02-15T01:39:33;18.90;40.30
61398;DHT22;47267;48.130;-2.040;2023-02-15T01:41:58;18.90;40.30
61398;DHT22;47267;48.130;-2.040;2023-02-15T01:44:47;18.90;40.30
61398;DHT22;47267;48.130;-2.040;2023-02-15T01:47:27;18.80;40.20
61398;DHT22;47267;48.130;-2.040;2023-02-15T01:49:58;18.80;40.20
61398;DHT22;47267;48.130;-2.040;2023-02-15T01:52:25;18.80;40.30
61398;DHT22;47267;48.130;-2.040;2023-02-15T01:54:51;18.80;40.20
61398;DHT22;47267;48.130;-2.040;2023-02-15T01:57:21;18.80;40.20
61398;DHT22;47267;48.130;-2.040;2023-02-15T01:59:54;18.80;40.20
61398;DHT22;47267;48.130;-2.040;2023-02-15T02:02:22;18.80;40.20
61398;DHT22;47267;48.130;-2.040;2023-02-15T02:04:54;18.80;40.20
61398;DHT22;47267;48.130;-2.040;2023-02-15T02:07:26;18.80;40.20
61398;DHT22;47267;48.130;-2.040;2023-02-15T02:09:52;18.80;40.20
61398;DHT22;47267;48.130;-2.040;2023-02-15T02:12:18;18.80;40.30
61398;DHT22;47267;48.130;-2.040;2023-02-15T02:14:47;18.80;40.30
61398;DHT22;47267;48.130;-2.040;2023-02-15T02:25:12;18.70;40.20
61398;DHT22;47267;48.130;-2.040;2023-02-15T02:39:13;18.70;40.20
61398;DHT22;47267;48.130;-2.040;2023-02-15T02:42:09;18.60;40.10
61398;DHT22;47267;48.130;-2.040;2023-02-15T02:44:48;18.60;40.10
61398;DHT22;47267;48.130;-2.040;2023-02-15T02:47:30;18.60;40.10
61398;DHT22;47267;48.130;-2.040;2023-02-15T02:50:13;18.60;40.10
61398;DHT22;47267;48.130;-2.040;2023-02-15T02:52:43;18.60;40.10
61398;DHT22;47267;48.130;-2.040;2023-02-15T02:58:03;18.60;40.10
61398;DHT22;47267;48.130;-2.040;2023-02-15T03:00:34;18.60;40.10
61398;DHT22;47267;48.130;-2.040;2023-02-15T03:03:29;18.60;40.10
61398;DHT22;47267;48.130;-2.040;2023-02-15T03:05:59;18.60;40.10
61398;DHT22;47267;48.130;-2.040;2023-02-15T03:08:32;18.60;40.10
61398;DHT22;47267;48.130;-2.040;2023-02-15T03:11:00;18.60;40.00
61398;DHT22;47267;48.130;-2.040;2023-02-15T03:13:27;18.60;40.10
61398;DHT22;47267;48.130;-2.040;2023-02-15T03:15:54;18.60;40.10
61398;DHT22;47267;48.130;-2.040;2023-02-15T03:18:46;18.50;40.00
61398;DHT22;47267;48.130;-2.040;2023-02-15T03:21:21;18.50;40.00
61398;DHT22;47267;48.130;-2.040;2023-02-15T03:23:59;18.50;40.00
61398;DHT22;47267;48.130;-2.040;2023-02-15T03:26:26;18.50;40.10
61398;DHT22;47267;48.130;-2.040;2023-02-15T03:28:54;18.50;40.00
61398;DHT22;47267;48.130;-2.040;2023-02-15T03:31:23;18.50;40.00
61398;DHT22;47267;48.130;-2.040;2023-02-15T03:33:57;18.50;40.00
61398;DHT22;47267;48.130;-2.040;2023-02-15T03:36:30;18.50;40.00
61398;DHT22;47267;48.130;-2.040;2023-02-15T03:41:36;18.50;40.00
61398;DHT22;47267;48.130;-2.040;2023-02-15T03:45:11;18.50;40.10
61398;DHT22;47267;48.130;-2.040;2023-02-15T03:47:24;18.50;40.00
61398;DHT22;47267;48.130;-2.040;2023-02-15T03:50:17;18.40;39.90
61398;DHT22;47267;48.130;-2.040;2023-02-15T03:53:02;18.50;40.00
61398;DHT22;47267;48.130;-2.040;2023-02-15T03:55:30;18.50;40.00
61398;DHT22;47267;48.130;-2.040;2023-02-15T03:57:56;18.50;40.00
61398;DHT22;47267;48.130;-2.040;2023-02-15T04:00:49;18.50;40.00
61398;DHT22;47267;48.130;-2.040;2023-02-15T04:06:19;18.40;40.00
61398;DHT22;47267;48.130;-2.040;2023-02-15T04:08:45;18.40;40.00
61398;DHT22;47267;48.130;-2.040;2023-02-15T04:11:30;18.40;40.00
61398;DHT22;47267;48.130;-2.040;2023-02-15T04:13:56;18.40;40.00
61398;DHT22;47267;48.130;-2.040;2023-02-15T04:16:25;18.40;40.00
61398;DHT22;47267;48.130;-2.040;2023-02-15T04:18:51;18.40;40.00
61398;DHT22;47267;48.130;-2.040;2023-02-15T04:21:35;18.40;40.00
61398;DHT22;47267;48.130;-2.040;2023-02-15T04:24:20;18.40;40.00
61398;DHT22;47267;48.130;-2.040;2023-02-15T04:27:04;18.40;40.00
61398;DHT22;47267;48.130;-2.040;2023-02-15T04:29:30;18.40;39.90
61398;DHT22;47267;48.130;-2.040;2023-02-15T04:31:58;18.40;40.00
61398;DHT22;47267;48.130;-2.040;2023-02-15T04:34:23;18.40;40.00
61398;DHT22;47267;48.130;-2.040;2023-02-15T04:36:49;18.40;40.00
61398;DHT22;47267;48.130;-2.040;2023-02-15T04:39:16;18.40;40.00
61398;DHT22;47267;48.130;-2.040;2023-02-15T04:41:43;18.40;40.00
61398;DHT22;47267;48.130;-2.040;2023-02-15T04:44:09;18.40;40.00
61398;DHT22;47267;48.130;-2.040;2023-02-15T04:46:34;18.40;40.60
61398;DHT22;47267;48.130;-2.040;2023-02-15T04:49:00;18.40;40.00
61398;DHT22;47267;48.130;-2.040;2023-02-15T04:51:26;18.40;40.00
61398;DHT22;47267;48.130;-2.040;2023-02-15T04:53:52;18.40;40.00
61398;DHT22;47267;48.130;-2.040;2023-02-15T04:56:21;18.40;40.00
61398;DHT22;47267;48.130;-2.040;2023-02-15T04:58:47;18.40;40.00
61398;DHT22;47267;48.130;-2.040;2023-02-15T05:01:13;18.40;40.00
61398;DHT22;47267;48.130;-2.040;2023-02-15T05:03:38;18.40;40.00
61398;DHT22;47267;48.130;-2.040;2023-02-15T05:06:04;18.40;40.00
61398;DHT22;47267;48.130;-2.040;2023-02-15T05:08:31;18.40;40.00
61398;DHT22;47267;48.130;-2.040;2023-02-15T05:10:57;18.40;40.00
61398;DHT22;47267;48.130;-2.040;2023-02-15T05:13:24;18.40;40.00
61398;DHT22;47267;48.130;-2.040;2023-02-15T05:15:51;18.40;40.10
61398;DHT22;47267;48.130;-2.040;2023-02-15T05:18:18;18.40;40.00
61398;DHT22;47267;48.130;-2.040;2023-02-15T05:20:44;18.40;40.00
61398;DHT22;47267;48.130;-2.040;2023-02-15T05:23:10;18.30;39.90
61398;DHT22;47267;48.130;-2.040;2023-02-15T05:25:36;18.40;40.00
61398;DHT22;47267;48.130;-2.040;2023-02-15T05:28:22;18.30;39.90
61398;DHT22;47267;48.130;-2.040;2023-02-15T05:30:49;18.40;39.90
61398;DHT22;47267;48.130;-2.040;2023-02-15T05:33:16;18.30;39.90
61398;DHT22;47267;48.130;-2.040;2023-02-15T05:35:42;18.40;40.00
61398;DHT22;47267;48.130;-2.040;2023-02-15T05:38:08;18.30;39.90
61398;DHT22;47267;48.130;-2.040;2023-02-15T05:40:34;18.40;40.00
61398;DHT22;47267;48.130;-2.040;2023-02-15T05:43:00;18.30;39.90
61398;DHT22;47267;48.130;-2.040;2023-02-15T05:45:26;18.30;40.00
61398;DHT22;47267;48.130;-2.040;2023-02-15T05:47:53;18.30;39.90
61398;DHT22;47267;48.130;-2.040;2023-02-15T05:50:18;18.30;39.90
61398;DHT22;47267;48.130;-2.040;2023-02-15T05:52:44;18.30;39.90
61398;DHT22;47267;48.130;-2.040;2023-02-15T05:55:10;18.30;39.90
61398;DHT22;47267;48.130;-2.040;2023-02-15T05:57:35;18.30;39.90
61398;DHT22;47267;48.130;-2.040;2023-02-15T06:00:03;18.30;40.50
61398;DHT22;47267;48.130;-2.040;2023-02-15T06:02:32;18.30;39.90
61398;DHT22;47267;48.130;-2.040;2023-02-15T06:04:58;18.30;39.90
61398;DHT22;47267;48.130;-2.040;2023-02-15T06:07:24;18.30;39.90
61398;DHT22;47267;48.130;-2.040;2023-02-15T06:09:50;18.30;39.90
61398;DHT22;47267;48.130;-2.040;2023-02-15T06:12:15;18.30;39.90
61398;DHT22;47267;48.130;-2.040;2023-02-15T06:14:41;18.30;39.90
61398;DHT22;47267;48.130;-2.040;2023-02-15T06:17:07;18.30;39.90
61398;DHT22;47267;48.130;-2.040;2023-02-15T06:19:32;18.30;39.90
61398;DHT22;47267;48.130;-2.040;2023-02-15T06:21:58;18.30;39.90
61398;DHT22;47267;48.130;-2.040;2023-02-15T06:24:24;18.30;39.90
61398;DHT22;47267;48.130;-2.040;2023-02-15T06:26:50;18.30;39.90
61398;DHT22;47267;48.130;-2.040;2023-02-15T06:29:15;18.30;39.90
61398;DHT22;47267;48.130;-2.040;2023-02-15T06:31:41;18.30;39.90
61398;DHT22;47267;48.130;-2.040;2023-02-15T06:34:07;18.30;39.90
61398;DHT22;47267;48.130;-2.040;2023-02-15T06:36:32;18.30;39.90
61398;DHT22;47267;48.130;-2.040;2023-02-15T06:38:58;18.30;40.00
61398;DHT22;47267;48.130;-2.040;2023-02-15T06:41:24;18.30;40.00
61398;DHT22;47267;48.130;-2.040;2023-02-15T06:43:50;18.30;40.00
61398;DHT22;47267;48.130;-2.040;2023-02-15T06:46:15;18.30;40.00
61398;DHT22;47267;48.130;-2.040;2023-02-15T06:48:41;18.30;40.00
61398;DHT22;47267;48.130;-2.040;2023-02-15T06:51:07;18.30;40.00
61398;DHT22;47267;48.130;-2.040;2023-02-15T06:53:33;18.30;40.10
61398;DHT22;47267;48.130;-2.040;2023-02-15T06:56:06;18.30;40.10
61398;DHT22;47267;48.130;-2.040;2023-02-15T06:58:37;18.30;40.10
61398;DHT22;47267;48.130;-2.040;2023-02-15T07:01:04;18.30;40.10
61398;DHT22;47267;48.130;-2.040;2023-02-15T07:03:30;18.30;40.10
61398;DHT22;47267;48.130;-2.040;2023-02-15T07:05:57;18.30;40.10
61398;DHT22;47267;48.130;-2.040;2023-02-15T07:08:24;18.30;40.20
61398;DHT22;47267;48.130;-2.040;2023-02-15T07:10:50;18.30;40.20
61398;DHT22;47267;48.130;-2.040;2023-02-15T07:13:16;18.30;40.20
61398;DHT22;47267;48.130;-2.040;2023-02-15T07:15:43;18.30;40.20
61398;DHT22;47267;48.130;-2.040;2023-02-15T07:18:08;18.30;40.20
61398;DHT22;47267;48.130;-2.040;2023-02-15T07:20:36;18.30;40.20
61398;DHT22;47267;48.130;-2.040;2023-02-15T07:23:02;18.30;40.20
61398;DHT22;47267;48.130;-2.040;2023-02-15T07:25:28;18.30;40.30
61398;DHT22;47267;48.130;-2.040;2023-02-15T07:27:58;18.30;40.30
61398;DHT22;47267;48.130;-2.040;2023-02-15T07:30:26;18.30;40.30
61398;DHT22;47267;48.130;-2.040;2023-02-15T07:32:58;18.30;40.30
61398;DHT22;47267;48.130;-2.040;2023-02-15T07:35:51;18.30;40.30
61398;DHT22;47267;48.130;-2.040;2023-02-15T07:38:17;18.30;40.30
61398;DHT22;47267;48.130;-2.040;2023-02-15T07:40:44;18.30;40.40
61398;DHT22;47267;48.130;-2.040;2023-02-15T07:43:10;18.30;40.40
61398;DHT22;47267;48.130;-2.040;2023-02-15T07:45:35;18.30;40.40
61398;DHT22;47267;48.130;-2.040;2023-02-15T07:48:02;18.30;40.40
61398;DHT22;47267;48.130;-2.040;2023-02-15T07:50:28;18.30;40.40
61398;DHT22;47267;48.130;-2.040;2023-02-15T07:52:53;18.30;40.50
61398;DHT22;47267;48.130;-2.040;2023-02-15T07:55:19;18.30;40.50
61398;DHT22;47267;48.130;-2.040;2023-02-15T07:57:46;18.30;40.50
61398;DHT22;47267;48.130;-2.040;2023-02-15T08:00:13;18.30;40.50
61398;DHT22;47267;48.130;-2.040;2023-02-15T08:02:39;18.30;40.50
61398;DHT22;47267;48.130;-2.040;2023-02-15T08:05:06;18.30;40.50
61398;DHT22;47267;48.130;-2.040;2023-02-15T08:07:31;18.30;40.60
61398;DHT22;47267;48.130;-2.040;2023-02-15T08:09:57;18.30;40.60
61398;DHT22;47267;48.130;-2.040;2023-02-15T08:12:26;18.30;40.60
61398;DHT22;47267;48.130;-2.040;2023-02-15T08:14:52;18.30;40.60
61398;DHT22;47267;48.130;-2.040;2023-02-15T08:17:17;18.30;40.60
61398;DHT22;47267;48.130;-2.040;2023-02-15T08:19:43;18.30;40.60
61398;DHT22;47267;48.130;-2.040;2023-02-15T08:22:12;18.30;40.60
61398;DHT22;47267;48.130;-2.040;2023-02-15T08:24:42;18.30;40.60
61398;DHT22;47267;48.130;-2.040;2023-02-15T08:27:09;18.30;40.70
61398;DHT22;47267;48.130;-2.040;2023-02-15T08:29:36;18.30;40.70
61398;DHT22;47267;48.130;-2.040;2023-02-15T08:32:05;18.30;40.70
61398;DHT22;47267;48.130;-2.040;2023-02-15T08:34:34;18.30;40.70
61398;DHT22;47267;48.130;-2.040;2023-02-15T08:36:59;18.30;40.70
61398;DHT22;47267;48.130;-2.040;2023-02-15T08:39:26;18.30;40.70
61398;DHT22;47267;48.130;-2.040;2023-02-15T08:41:51;18.20;40.60
61398;DHT22;47267;48.130;-2.040;2023-02-15T08:44:19;18.30;40.70
61398;DHT22;47267;48.130;-2.040;2023-02-15T08:46:46;18.30;40.70
61398;DHT22;47267;48.130;-2.040;2023-02-15T08:49:17;18.30;40.70
61398;DHT22;47267;48.130;-2.040;2023-02-15T08:51:43;18.20;40.70
61398;DHT22;47267;48.130;-2.040;2023-02-15T08:54:13;18.30;40.70
61398;DHT22;47267;48.130;-2.040;2023-02-15T08:56:42;18.20;40.70
61398;DHT22;47267;48.130;-2.040;2023-02-15T08:59:16;18.20;40.70
61398;DHT22;47267;48.130;-2.040;2023-02-15T09:01:42;18.20;40.70
61398;DHT22;47267;48.130;-2.040;2023-02-15T09:04:09;18.20;40.70
61398;DHT22;47267;48.130;-2.040;2023-02-15T09:06:36;18.20;40.70
61398;DHT22;47267;48.130;-2.040;2023-02-15T09:09:02;18.20;40.70
61398;DHT22;47267;48.130;-2.040;2023-02-15T09:11:30;18.20;40.70
61398;DHT22;47267;48.130;-2.040;2023-02-15T09:14:01;18.20;40.70
61398;DHT22;47267;48.130;-2.040;2023-02-15T09:16:33;18.20;40.70
61398;DHT22;47267;48.130;-2.040;2023-02-15T09:18:59;18.20;40.70
61398;DHT22;47267;48.130;-2.040;2023-02-15T09:21:27;18.20;40.70
61398;DHT22;47267;48.130;-2.040;2023-02-15T09:24:02;18.20;40.70
61398;DHT22;47267;48.130;-2.040;2023-02-15T09:26:29;18.20;41.30
61398;DHT22;47267;48.130;-2.040;2023-02-15T09:28:58;18.20;40.70
61398;DHT22;47267;48.130;-2.040;2023-02-15T09:31:28;18.20;40.70
61398;DHT22;47267;48.130;-2.040;2023-02-15T09:33:54;18.20;40.70
61398;DHT22;47267;48.130;-2.040;2023-02-15T09:36:28;18.20;40.70
61398;DHT22;47267;48.130;-2.040;2023-02-15T09:39:18;18.20;40.70
61398;DHT22;47267;48.130;-2.040;2023-02-15T09:59:18;18.20;40.70
61398;DHT22;47267;48.130;-2.040;2023-02-15T10:02:15;18.20;40.70
61398;DHT22;47267;48.130;-2.040;2023-02-15T10:04:54;18.20;40.70
61398;DHT22;47267;48.130;-2.040;2023-02-15T10:08:00;18.20;40.70
61398;DHT22;47267;48.130;-2.040;2023-02-15T10:10:57;18.20;40.70
61398;DHT22;47267;48.130;-2.040;2023-02-15T10:25:17;18.30;40.70
61398;DHT22;47267;48.130;-2.040;2023-02-15T10:27:47;18.30;40.80
61398;DHT22;47267;48.130;-2.040;2023-02-15T10:30:46;18.30;40.70
61398;DHT22;47267;48.130;-2.040;2023-02-15T10:33:34;18.30;40.80
61398;DHT22;47267;48.130;-2.040;2023-02-15T10:38:57;18.30;40.80
61398;DHT22;47267;48.130;-2.040;2023-02-15T10:54:46;18.30;40.90
61398;DHT22;47267;48.130;-2.040;2023-02-15T10:57:26;18.30;40.80
61398;DHT22;47267;48.130;-2.040;2023-02-15T11:00:13;18.40;40.90
61398;DHT22;47267;48.130;-2.040;2023-02-15T11:07:42;18.40;40.90
61398;DHT22;47267;48.130;-2.040;2023-02-15T11:10:29;18.40;40.90
61398;DHT22;47267;48.130;-2.040;2023-02-15T11:12:57;18.40;40.90
61398;DHT22;47267;48.130;-2.040;2023-02-15T11:15:41;18.50;41.00
61398;DHT22;47267;48.130;-2.040;2023-02-15T11:21:01;18.50;41.00
61398;DHT22;47267;48.130;-2.040;2023-02-15T11:23:27;18.60;41.00
61398;DHT22;47267;48.130;-2.040;2023-02-15T11:25:59;18.60;41.00
61398;DHT22;47267;48.130;-2.040;2023-02-15T11:29:00;18.60;41.10
61398;DHT22;47267;48.130;-2.040;2023-02-15T11:31:34;18.60;41.00
61398;DHT22;47267;48.130;-2.040;2023-02-15T11:34:05;18.60;41.00
61398;DHT22;47267;48.130;-2.040;2023-02-15T11:36:40;18.70;41.10
61398;DHT22;47267;48.130;-2.040;2023-02-15T11:39:11;18.70;41.10
61398;DHT22;47267;48.130;-2.040;2023-02-15T11:41:55;18.70;41.10
61398;DHT22;47267;48.130;-2.040;2023-02-15T11:44:34;18.80;41.20
61398;DHT22;47267;48.130;-2.040;2023-02-15T11:47:01;18.80;41.20
61398;DHT22;47267;48.130;-2.040;2023-02-15T11:49:33;18.80;41.20
61398;DHT22;47267;48.130;-2.040;2023-02-15T11:52:12;18.80;41.80
61398;DHT22;47267;48.130;-2.040;2023-02-15T11:54:42;18.80;41.20
61398;DHT22;47267;48.130;-2.040;2023-02-15T11:57:38;18.90;41.30
61398;DHT22;47267;48.130;-2.040;2023-02-15T12:00:14;18.90;41.20
61398;DHT22;47267;48.130;-2.040;2023-02-15T12:02:45;18.90;41.20
61398;DHT22;47267;48.130;-2.040;2023-02-15T12:05:15;18.90;41.20
61398;DHT22;47267;48.130;-2.040;2023-02-15T12:08:20;19.00;41.30
61398;DHT22;47267;48.130;-2.040;2023-02-15T12:11:11;19.00;41.30
61398;DHT22;47267;48.130;-2.040;2023-02-15T12:16:19;19.10;41.40
61398;DHT22;47267;48.130;-2.040;2023-02-15T12:18:47;19.00;41.30
61398;DHT22;47267;48.130;-2.040;2023-02-15T12:21:23;19.10;41.30
61398;DHT22;47267;48.130;-2.040;2023-02-15T12:23:52;19.10;41.40
61398;DHT22;47267;48.130;-2.040;2023-02-15T12:26:28;19.10;41.30
61398;DHT22;47267;48.130;-2.040;2023-02-15T12:28:56;19.20;41.40
61398;DHT22;47267;48.130;-2.040;2023-02-15T12:31:36;19.20;41.40
61398;DHT22;47267;48.130;-2.040;2023-02-15T12:34:09;19.20;41.40
61398;DHT22;47267;48.130;-2.040;2023-02-15T12:36:47;19.20;41.40
61398;DHT22;47267;48.130;-2.040;2023-02-15T12:39:22;19.20;41.40
61398;DHT22;47267;48.130;-2.040;2023-02-15T12:44:20;19.30;41.40
61398;DHT22;47267;48.130;-2.040;2023-02-15T12:47:00;19.30;41.40
61398;DHT22;47267;48.130;-2.040;2023-02-15T12:49:27;19.30;41.40
61398;DHT22;47267;48.130;-2.040;2023-02-15T12:51:59;19.40;41.50
61398;DHT22;47267;48.130;-2.040;2023-02-15T12:54:32;19.30;41.40
61398;DHT22;47267;48.130;-2.040;2023-02-15T13:02:53;19.40;41.50
61398;DHT22;47267;48.130;-2.040;2023-02-15T13:05:28;19.40;41.60
61398;DHT22;47267;48.130;-2.040;2023-02-15T13:08:22;19.50;41.60
61398;DHT22;47267;48.130;-2.040;2023-02-15T13:11:07;19.50;41.50
61398;DHT22;47267;48.130;-2.040;2023-02-15T13:13:59;19.50;41.50
61398;DHT22;47267;48.130;-2.040;2023-02-15T13:16:37;19.50;41.60
61398;DHT22;47267;48.130;-2.040;2023-02-15T13:19:10;19.50;41.60
61398;DHT22;47267;48.130;-2.040;2023-02-15T13:21:41;19.60;41.60
61398;DHT22;47267;48.130;-2.040;2023-02-15T13:24:20;19.60;41.60
61398;DHT22;47267;48.130;-2.040;2023-02-15T13:26:48;19.60;41.60
61398;DHT22;47267;48.130;-2.040;2023-02-15T13:29:36;19.60;41.70
61398;DHT22;47267;48.130;-2.040;2023-02-15T13:32:12;19.60;41.60
61398;DHT22;47267;48.130;-2.040;2023-02-15T13:34:42;19.70;41.70
61398;DHT22;47267;48.130;-2.040;2023-02-15T13:37:33;19.70;41.70
61398;DHT22;47267;48.130;-2.040;2023-02-15T13:40:06;19.70;41.70
61398;DHT22;47267;48.130;-2.040;2023-02-15T13:42:45;19.70;41.80
61398;DHT22;47267;48.130;-2.040;2023-02-15T14:03:35;19.90;41.80
61398;DHT22;47267;48.130;-2.040;2023-02-15T14:08:57;19.90;41.90
61398;DHT22;47267;48.130;-2.040;2023-02-15T14:11:42;19.90;41.90
61398;DHT22;47267;48.130;-2.040;2023-02-15T14:17:26;20.00;41.90
61398;DHT22;47267;48.130;-2.040;2023-02-15T14:22:53;20.00;41.90
61398;DHT22;47267;48.130;-2.040;2023-02-15T14:25:42;20.00;41.90
61398;DHT22;47267;48.130;-2.040;2023-02-15T14:28:29;20.00;41.90
61398;DHT22;47267;48.130;-2.040;2023-02-15T14:30:59;20.00;41.90
61398;DHT22;47267;48.130;-2.040;2023-02-15T14:33:36;20.10;42.00
61398;DHT22;47267;48.130;-2.040;2023-02-15T14:36:04;20.00;42.00
61398;DHT22;47267;48.130;-2.040;2023-02-15T14:38:56;20.10;42.00
61398;DHT22;47267;48.130;-2.040;2023-02-15T14:41:37;20.10;42.10
61398;DHT22;47267;48.130;-2.040;2023-02-15T14:47:14;20.10;42.10
61398;DHT22;47267;48.130;-2.040;2023-02-15T14:49:43;20.20;42.10
61398;DHT22;47267;48.130;-2.040;2023-02-15T14:52:10;20.20;42.10
61398;DHT22;47267;48.130;-2.040;2023-02-15T14:59:46;20.20;42.10
61398;DHT22;47267;48.130;-2.040;2023-02-15T15:02:41;20.30;42.20
61398;DHT22;47267;48.130;-2.040;2023-02-15T15:05:30;20.30;42.20
61398;DHT22;47267;48.130;-2.040;2023-02-15T15:07:59;20.30;42.20
61398;DHT22;47267;48.130;-2.040;2023-02-15T15:10:33;20.30;42.10
61398;DHT22;47267;48.130;-2.040;2023-02-15T15:13:35;20.30;42.10
61398;DHT22;47267;48.130;-2.040;2023-02-15T15:19:02;20.40;42.20
61398;DHT22;47267;48.130;-2.040;2023-02-15T15:44:52;20.50;42.20
61398;DHT22;47267;48.130;-2.040;2023-02-15T15:50:16;20.60;42.30
61398;DHT22;47267;48.130;-2.040;2023-02-15T15:52:52;20.60;42.20
61398;DHT22;47267;48.130;-2.040;2023-02-15T15:55:22;20.60;42.20
61398;DHT22;47267;48.130;-2.040;2023-02-15T15:57:51;20.60;42.20
61398;DHT22;47267;48.130;-2.040;2023-02-15T16:02:53;20.70;42.30
61398;DHT22;47267;48.130;-2.040;2023-02-15T16:05:19;20.70;42.30
61398;DHT22;47267;48.130;-2.040;2023-02-15T16:07:45;20.70;42.30
61398;DHT22;47267;48.130;-2.040;2023-02-15T16:10:28;20.70;42.40
61398;DHT22;47267;48.130;-2.040;2023-02-15T16:12:57;20.70;42.40
61398;DHT22;47267;48.130;-2.040;2023-02-15T16:15:25;20.70;42.20
61398;DHT22;47267;48.130;-2.040;2023-02-15T16:17:54;20.80;42.30
61398;DHT22;47267;48.130;-2.040;2023-02-15T16:20:23;20.80;42.30
61398;DHT22;47267;48.130;-2.040;2023-02-15T16:25:48;20.80;42.40
61398;DHT22;47267;48.130;-2.040;2023-02-15T16:28:18;20.80;42.30
61398;DHT22;47267;48.130;-2.040;2023-02-15T16:30:45;20.80;42.30
61398;DHT22;47267;48.130;-2.040;2023-02-15T16:33:19;20.80;42.30
61398;DHT22;47267;48.130;-2.040;2023-02-15T16:35:56;20.80;42.30
61398;DHT22;47267;48.130;-2.040;2023-02-15T16:41:17;20.90;42.40
61398;DHT22;47267;48.130;-2.040;2023-02-15T16:43:45;20.90;42.30
61398;DHT22;47267;48.130;-2.040;2023-02-15T16:46:19;20.90;42.40
61398;DHT22;47267;48.130;-2.040;2023-02-15T16:48:47;20.90;42.40
61398;DHT22;47267;48.130;-2.040;2023-02-15T16:51:22;20.90;42.30
61398;DHT22;47267;48.130;-2.040;2023-02-15T16:53:49;20.90;42.40
61398;DHT22;47267;48.130;-2.040;2023-02-15T16:56:15;20.90;42.40
61398;DHT22;47267;48.130;-2.040;2023-02-15T16:58:44;20.90;42.30
61398;DHT22;47267;48.130;-2.040;2023-02-15T17:01:13;20.90;42.30
61398;DHT22;47267;48.130;-2.040;2023-02-15T17:03:41;20.90;42.30
61398;DHT22;47267;48.130;-2.040;2023-02-15T17:06:25;20.90;42.30
61398;DHT22;47267;48.130;-2.040;2023-02-15T17:08:52;20.90;42.30
61398;DHT22;47267;48.130;-2.040;2023-02-15T17:11:43;20.90;42.40
61398;DHT22;47267;48.130;-2.040;2023-02-15T17:16:40;20.90;42.30
61398;DHT22;47267;48.130;-2.040;2023-02-15T17:19:28;20.90;42.40
61398;DHT22;47267;48.130;-2.040;2023-02-15T17:21:57;20.90;42.30
61398;DHT22;47267;48.130;-2.040;2023-02-15T17:24:40;20.90;42.30
61398;DHT22;47267;48.130;-2.040;2023-02-15T17:27:14;20.90;42.30
61398;DHT22;47267;48.130;-2.040;2023-02-15T17:29:48;20.90;42.30
61398;DHT22;47267;48.130;-2.040;2023-02-15T17:32:23;20.90;42.30
61398;DHT22;47267;48.130;-2.040;2023-02-15T17:37:27;20.90;42.30
61398;DHT22;47267;48.130;-2.040;2023-02-15T17:39:53;20.90;42.30
61398;DHT22;47267;48.130;-2.040;2023-02-15T17:42:19;20.90;42.20
61398;DHT22;47267;48.130;-2.040;2023-02-15T17:44:44;20.90;42.30
61398;DHT22;47267;48.130;-2.040;2023-02-15T17:47:16;20.90;42.30
61398;DHT22;47267;48.130;-2.040;2023-02-15T17:49:42;20.90;42.30
61398;DHT22;47267;48.130;-2.040;2023-02-15T17:52:12;20.90;42.30
61398;DHT22;47267;48.130;-2.040;2023-02-15T17:54:39;20.90;42.30
61398;DHT22;47267;48.130;-2.040;2023-02-15T17:57:24;20.90;42.30
61398;DHT22;47267;48.130;-2.040;2023-02-15T17:59:51;20.90;42.30
61398;DHT22;47267;48.130;-2.040;2023-02-15T18:02:36;20.90;42.30
61398;DHT22;47267;48.130;-2.040;2023-02-15T18:05:20;20.90;42.30
61398;DHT22;47267;48.130;-2.040;2023-02-15T18:08:10;20.90;42.30
61398;DHT22;47267;48.130;-2.040;2023-02-15T18:10:55;20.80;42.30
61398;DHT22;47267;48.130;-2.040;2023-02-15T18:13:42;20.80;42.20
61398;DHT22;47267;48.130;-2.040;2023-02-15T18:16:16;20.80;42.20
61398;DHT22;47267;48.130;-2.040;2023-02-15T18:18:43;20.80;42.20
61398;DHT22;47267;48.130;-2.040;2023-02-15T18:21:11;20.80;42.20
61398;DHT22;47267;48.130;-2.040;2023-02-15T18:23:37;20.80;42.30
61398;DHT22;47267;48.130;-2.040;2023-02-15T18:26:03;20.80;42.20
61398;DHT22;47267;48.130;-2.040;2023-02-15T18:28:29;20.80;42.20
61398;DHT22;47267;48.130;-2.040;2023-02-15T18:30:55;20.80;42.20
61398;DHT22;47267;48.130;-2.040;2023-02-15T18:33:41;20.70;42.20
61398;DHT22;47267;48.130;-2.040;2023-02-15T18:36:13;20.80;42.30